Time;durP1;ratioP1;P1;durP2;ratioP2;P2;SDS_P1;SDS_P2;PMS_P1;PMS_P2;Temp;Humidity;BMP_temperature;BMP_pressure;BME280_temperature;BME280_humidity;BME280_pressure;Samples;Min_cycle;Max_cycle;Signal;HPM_P1;HPM_P2
2021/07/26 00:01:13;;;;;;;;;;;;;;;16.92;100.00;95904.94;3586645;40;19933;-61
2021/07/26 00:03:41;;;;;;;;;;;;;;;16.91;100.00;95908.72;3568401;40;20296;-61
2021/07/26 00:06:09;;;;;;;;;;;;;;;16.91;100.00;95902.59;3575896;40;19946;-61
2021/07/26 00:08:37;;;;;;;;;;;;;;;16.89;100.00;95910.88;3580671;40;20496;-62
2021/07/26 00:11:09;;;;;;;;;;;;;;;16.94;100.00;95909.19;3578977;40;19938;-61
2021/07/26 00:13:38;;;;;;;;;;;;;;;16.95;100.00;95929.47;3574965;40;19936;-61
2021/07/26 00:16:06;;;;;;;;;;;;;;;16.91;100.00;95922.03;3577273;40;19947;-61
2021/07/26 00:18:34;;;;;;;;;;;;;;;16.83;100.00;95890.75;3592479;39;20695;-61
2021/07/26 00:21:02;;;;;;;;;;;;;;;16.81;100.00;95858.28;3594044;39;19943;-61
2021/07/26 00:23:30;;;;;;;;;;;;;;;16.77;100.00;95870.63;3585595;40;19946;-61
2021/07/26 00:25:57;;;;;;;;;;;;;;;16.74;100.00;95884.53;3592906;39;20209;-61
2021/07/26 00:28:24;;;;;;;;;;;;;;;16.69;100.00;95881.97;3586115;39;19936;-62
2021/07/26 00:30:52;;;;;;;;;;;;;;;16.70;100.00;95888.88;3579521;40;19944;-62
2021/07/26 00:36:29;;;;;;;;;;;;;;;16.58;100.00;95892.81;3581485;40;19940;-61
2021/07/26 00:38:57;;;;;;;;;;;;;;;16.57;100.00;95895.78;3585310;40;19946;-61
2021/07/26 00:41:24;;;;;;;;;;;;;;;16.59;100.00;95913.03;3577444;40;19940;-61
2021/07/26 00:43:52;;;;;;;;;;;;;;;16.54;100.00;95899.03;3579747;40;19933;-61
2021/07/26 00:46:19;;;;;;;;;;;;;;;16.63;100.00;95931.09;3583663;40;19940;-62
2021/07/26 00:48:47;;;;;;;;;;;;;;;16.62;100.00;95964.13;3575489;40;19940;-61
2021/07/26 00:51:15;;;;;;;;;;;;;;;16.66;100.00;95962.47;3586866;39;19933;-61
2021/07/26 00:53:42;;;;;;;;;;;;;;;16.66;100.00;95952.59;3594177;39;19962;-61
2021/07/26 00:56:10;;;;;;;;;;;;;;;16.69;100.00;95929.91;3585961;39;19948;-61
2021/07/26 00:58:37;;;;;;;;;;;;;;;16.68;100.00;95923.81;3569009;40;19950;-61
2021/07/26 01:01:05;;;;;;;;;;;;;;;16.64;100.00;95932.66;3583803;39;19944;-61
2021/07/26 01:03:33;;;;;;;;;;;;;;;16.63;100.00;95925.75;3567833;40;19955;-63
2021/07/26 01:06:01;;;;;;;;;;;;;;;16.60;100.00;95919.94;3588960;39;20758;-61
2021/07/26 01:08:28;;;;;;;;;;;;;;;16.65;100.00;95908.41;3592866;39;20683;-61
2021/07/26 01:10:56;;;;;;;;;;;;;;;16.58;100.00;95879.50;3592683;39;20249;-61
2021/07/26 01:13:26;;;;;;;;;;;;;;;16.66;100.00;95882.56;3593217;39;19940;-62
2021/07/26 01:15:53;;;;;;;;;;;;;;;16.68;100.00;95883.03;3576000;40;19940;-61
2021/07/26 01:18:28;;;;;;;;;;;;;;;16.68;100.00;95875.84;3584313;40;19970;-61
2021/07/26 01:20:57;;;;;;;;;;;;;;;16.70;100.00;95865.69;3584681;40;19950;-61
2021/07/26 01:23:25;;;;;;;;;;;;;;;16.67;100.00;95866.28;3591662;39;20453;-61
2021/07/26 01:25:53;;;;;;;;;;;;;;;16.64;100.00;95864.22;3578064;40;19945;-61
2021/07/26 01:28:21;;;;;;;;;;;;;;;16.62;100.00;95876.25;3580097;40;19936;-61
2021/07/26 01:30:49;;;;;;;;;;;;;;;16.62;100.00;95903.66;3585024;40;19944;-61
2021/07/26 01:33:17;;;;;;;;;;;;;;;16.57;100.00;95933.06;3585781;40;19945;-61
2021/07/26 01:35:46;;;;;;;;;;;;;;;16.51;100.00;95953.66;3583960;40;19982;-60
2021/07/26 01:38:13;;;;;;;;;;;;;;;16.49;100.00;95957.72;3570395;40;19936;-61
2021/07/26 01:40:41;;;;;;;;;;;;;;;16.51;100.00;95959.00;3574251;40;19939;-61
2021/07/26 01:43:10;;;;;;;;;;;;;;;16.48;100.00;95945.47;3583900;39;19946;-61
2021/07/26 01:45:38;;;;;;;;;;;;;;;16.40;100.00;95907.78;3578288;40;19942;-61
2021/07/26 01:48:35;;;;;;;;;;;;;;;16.28;100.00;95896.81;3564033;40;20612;-61
2021/07/26 01:51:06;;;;;;;;;;;;;;;16.24;100.00;95888.63;3548494;40;19947;-61
2021/07/26 01:53:34;;;;;;;;;;;;;;;16.20;100.00;95900.94;3568878;39;19940;-61
2021/07/26 01:56:02;;;;;;;;;;;;;;;16.26;100.00;95899.78;3585922;40;19940;-61
2021/07/26 01:58:30;;;;;;;;;;;;;;;16.31;100.00;95888.25;3589496;40;19932;-61
2021/07/26 02:00:57;;;;;;;;;;;;;;;16.26;100.00;95865.16;3572530;40;19940;-61
2021/07/26 02:03:25;;;;;;;;;;;;;;;16.25;100.00;95852.94;3580648;39;20043;-62
2021/07/26 02:05:52;;;;;;;;;;;;;;;16.24;100.00;95829.28;3577958;40;19940;-61
2021/07/26 02:08:20;;;;;;;;;;;;;;;16.20;100.00;95813.09;3585263;39;19940;-61
2021/07/26 02:10:48;;;;;;;;;;;;;;;16.22;100.00;95840.22;3574729;40;19944;-61
2021/07/26 02:13:15;;;;;;;;;;;;;;;16.23;100.00;95841.78;3583296;40;19946;-61
2021/07/26 02:15:43;;;;;;;;;;;;;;;16.31;100.00;95826.25;3575711;40;19944;-60
2021/07/26 02:18:10;;;;;;;;;;;;;;;16.31;100.00;95819.03;3586904;39;19946;-61
2021/07/26 02:20:37;;;;;;;;;;;;;;;16.33;100.00;95819.53;3584826;39;19938;-61
2021/07/26 02:23:05;;;;;;;;;;;;;;;16.32;100.00;95820.63;3571175;40;20199;-61
2021/07/26 02:25:32;;;;;;;;;;;;;;;16.34;100.00;95812.31;3579276;40;19940;-61
2021/07/26 02:28:00;;;;;;;;;;;;;;;16.28;100.00;95803.66;3582702;40;20255;-61
2021/07/26 02:30:27;;;;;;;;;;;;;;;16.27;100.00;95802.06;3584508;40;19940;-61
2021/07/26 02:32:55;;;;;;;;;;;;;;;16.27;100.00;95808.19;3582646;40;19951;-61
2021/07/26 02:35:23;;;;;;;;;;;;;;;16.26;100.00;95801.28;3583561;40;19944;-61
2021/07/26 02:37:51;;;;;;;;;;;;;;;16.25;100.00;95802.38;3574553;40;19943;-61
2021/07/26 02:40:19;;;;;;;;;;;;;;;16.31;100.00;95795.09;3580851;40;19954;-61
2021/07/26 02:42:46;;;;;;;;;;;;;;;16.34;100.00;95809.66;3591543;39;20335;-61
2021/07/26 02:45:14;;;;;;;;;;;;;;;16.34;100.00;95821.13;3583932;40;19944;-61
2021/07/26 02:47:41;;;;;;;;;;;;;;;16.35;100.00;95820.03;3573509;40;19939;-61
2021/07/26 02:50:09;;;;;;;;;;;;;;;16.41;100.00;95818.06;3573487;40;19948;-61
2021/07/26 02:52:36;;;;;;;;;;;;;;;16.39;100.00;95831.66;3585857;40;19946;-61
2021/07/26 02:55:04;;;;;;;;;;;;;;;16.36;100.00;95823.47;3580066;40;19940;-61
2021/07/26 02:57:33;;;;;;;;;;;;;;;16.38;100.00;95823.97;3593673;39;19947;-60
2021/07/26 03:00:00;;;;;;;;;;;;;;;16.40;100.00;95829.78;3582801;40;19944;-61
2021/07/26 03:02:28;;;;;;;;;;;;;;;16.39;100.00;95828.22;3582404;40;19950;-61
2021/07/26 03:04:58;;;;;;;;;;;;;;;16.40;100.00;95827.13;3585243;39;19940;-60
2021/07/26 03:07:26;;;;;;;;;;;;;;;16.40;100.00;95835.91;3586406;40;19940;-61
2021/07/26 03:09:53;;;;;;;;;;;;;;;16.36;100.00;95834.13;3583122;40;19936;-61
2021/07/26 03:12:21;;;;;;;;;;;;;;;16.36;100.00;95831.47;3578473;40;19944;-60
2021/07/26 03:14:49;;;;;;;;;;;;;;;16.36;100.00;95842.09;3586295;40;19941;-61
2021/07/26 03:17:16;;;;;;;;;;;;;;;16.30;100.00;95833.44;3575896;40;21897;-60
2021/07/26 03:19:44;;;;;;;;;;;;;;;16.37;100.00;95839.13;3591620;39;19944;-61
2021/07/26 03:22:30;;;;;;;;;;;;;;;16.40;100.00;95841.22;3590205;39;19947;-60
2021/07/26 03:24:58;;;;;;;;;;;;;;;16.43;100.00;95856.63;3582777;39;19962;-61
2021/07/26 03:27:25;;;;;;;;;;;;;;;16.36;100.00;95842.09;3573891;40;19951;-60
2021/07/26 03:29:52;;;;;;;;;;;;;;;16.40;100.00;95851.88;3575039;40;19946;-61
2021/07/26 03:32:20;;;;;;;;;;;;;;;16.35;100.00;95859.16;3585077;40;20037;-60
2021/07/26 03:34:48;;;;;;;;;;;;;;;16.34;100.00;95857.56;3583447;40;20269;-61
2021/07/26 03:37:15;;;;;;;;;;;;;;;16.33;100.00;95854.13;3585031;40;20213;-60
2021/07/26 03:39:43;;;;;;;;;;;;;;;16.33;100.00;95862.13;3575201;40;19942;-61
2021/07/26 03:42:11;;;;;;;;;;;;;;;16.31;100.00;95855.53;3584548;39;20821;-61
2021/07/26 03:44:38;;;;;;;;;;;;;;;16.20;100.00;95855.69;3583713;40;19940;-61
2021/07/26 03:47:06;;;;;;;;;;;;;;;16.20;100.00;95868.22;3574732;40;19947;-61
2021/07/26 03:49:33;;;;;;;;;;;;;;;16.19;100.00;95861.31;3582458;39;19939;-61
2021/07/26 03:52:01;;;;;;;;;;;;;;;16.10;100.00;95856.66;3563755;40;19943;-61
2021/07/26 03:54:28;;;;;;;;;;;;;;;16.14;100.00;95867.50;3580299;40;19946;-61
2021/07/26 03:56:57;;;;;;;;;;;;;;;16.14;100.00;95862.19;3586505;40;19944;-61
2021/07/26 03:59:24;;;;;;;;;;;;;;;16.14;100.00;95862.97;3580030;39;19954;-61
2021/07/26 04:01:55;;;;;;;;;;;;;;;16.21;100.00;95862.59;3581195;39;19932;-61
2021/07/26 04:04:24;;;;;;;;;;;;;;;16.21;100.00;95854.59;3593063;39;19948;-61
2021/07/26 04:07:00;;;;;;;;;;;;;;;16.24;100.00;95859.34;3585453;40;20293;-62
2021/07/26 04:09:45;;;;;;;;;;;;;;;16.99;100.00;95855.84;3574900;40;19946;-61
2021/07/26 04:12:19;;;;;;;;;;;;;;;17.65;100.00;95852.81;3574017;40;19936;-61
2021/07/26 04:14:47;;;;;;;;;;;;;;;17.97;100.00;95867.81;3578722;40;19931;-61
2021/07/26 04:17:14;;;;;;;;;;;;;;;18.35;100.00;95874.63;3583687;40;20802;-62
2021/07/26 04:19:42;;;;;;;;;;;;;;;18.54;100.00;95868.25;3576195;40;19940;-62
2021/07/26 04:22:09;;;;;;;;;;;;;;;18.90;100.00;95873.44;3582348;40;20022;-62
2021/07/26 04:24:37;;;;;;;;;;;;;;;19.16;100.00;95874.59;3576756;40;22438;-62
2021/07/26 04:27:04;;;;;;;;;;;;;;;19.44;100.00;95866.31;3570487;40;19940;-62
2021/07/26 04:29:32;;;;;;;;;;;;;;;19.55;100.00;95859.53;3578522;40;19941;-62
2021/07/26 04:31:59;;;;;;;;;;;;;;;19.91;100.00;95871.81;3575534;40;19944;-62
2021/07/26 04:34:27;;;;;;;;;;;;;;;19.96;100.00;95869.00;3575544;40;20536;-62
2021/07/26 04:36:54;;;;;;;;;;;;;;;20.13;100.00;95870.06;3578748;40;19947;-62
2021/07/26 04:39:22;;;;;;;;;;;;;;;20.09;100.00;95869.13;3564765;40;19934;-61
2021/07/26 04:41:49;;;;;;;;;;;;;;;20.03;100.00;95878.41;3582397;40;20334;-62
2021/07/26 04:44:17;;;;;;;;;;;;;;;20.10;100.00;95874.16;3588053;40;19981;-62
2021/07/26 04:46:44;;;;;;;;;;;;;;;20.52;100.00;95868.22;3573136;40;20199;-62
2021/07/26 04:49:12;;;;;;;;;;;;;;;20.74;100.00;95866.38;3583165;40;20450;-62
2021/07/26 04:51:40;;;;;;;;;;;;;;;20.93;100.00;95867.91;3578567;40;19947;-62
2021/07/26 04:54:07;;;;;;;;;;;;;;;21.03;100.00;95871.03;3585095;40;19974;-62
2021/07/26 04:56:35;;;;;;;;;;;;;;;21.11;100.00;95865.91;3587762;39;19932;-62
2021/07/26 04:59:02;;;;;;;;;;;;;;;21.28;100.00;95855.09;3568930;40;19940;-62
2021/07/26 05:01:30;;;;;;;;;;;;;;;21.34;100.00;95848.41;3581584;40;19936;-62
2021/07/26 05:03:58;;;;;;;;;;;;;;;21.48;100.00;95853.50;3582762;40;20005;-62
2021/07/26 05:06:26;;;;;;;;;;;;;;;21.72;100.00;95853.97;3593296;39;19944;-62
2021/07/26 05:08:53;;;;;;;;;;;;;;;21.70;100.00;95850.84;3578807;39;20225;-63
2021/07/26 05:11:21;;;;;;;;;;;;;;;21.90;100.00;95852.72;3583032;40;19944;-63
2021/07/26 05:13:49;;;;;;;;;;;;;;;21.75;99.82;95848.72;3569959;40;19946;-64
2021/07/26 05:16:16;;;;;;;;;;;;;;;21.59;100.00;95855.81;3589212;39;19940;-64
2021/07/26 05:18:44;;;;;;;;;;;;;;;21.20;100.00;95854.03;3579009;40;19947;-62
2021/07/26 05:21:11;;;;;;;;;;;;;;;20.88;100.00;95861.63;3584155;39;19945;-62
2021/07/26 05:23:39;;;;;;;;;;;;;;;20.59;100.00;95868.50;3592724;39;19932;-62
2021/07/26 05:26:07;;;;;;;;;;;;;;;20.25;100.00;95872.84;3585455;39;19944;-63
2021/07/26 05:28:35;;;;;;;;;;;;;;;19.92;100.00;95865.38;3584122;40;20026;-62
2021/07/26 05:31:03;;;;;;;;;;;;;;;19.59;100.00;95863.16;3567191;40;19940;-63
2021/07/26 05:33:30;;;;;;;;;;;;;;;19.34;100.00;95868.19;3582403;40;21697;-64
2021/07/26 05:35:58;;;;;;;;;;;;;;;19.22;100.00;95865.34;3571338;39;19940;-61
2021/07/26 05:38:25;;;;;;;;;;;;;;;19.04;100.00;95865.31;3589835;39;19944;-60
2021/07/26 05:40:56;;;;;;;;;;;;;;;19.03;100.00;95877.09;3575989;39;19951;-60
2021/07/26 05:43:24;;;;;;;;;;;;;;;19.07;100.00;95868.47;3582989;39;19948;-60
2021/07/26 05:45:51;;;;;;;;;;;;;;;18.98;100.00;95868.44;3582610;39;20699;-61
2021/07/26 05:48:19;;;;;;;;;;;;;;;19.11;100.00;95866.75;3575292;39;19935;-61
2021/07/26 05:50:47;;;;;;;;;;;;;;;19.09;100.00;95874.28;3580222;39;19941;-62
2021/07/26 05:53:14;;;;;;;;;;;;;;;19.11;100.00;95867.53;3589708;39;19982;-60
2021/07/26 05:55:42;;;;;;;;;;;;;;;19.11;100.00;95870.19;3583993;40;19941;-61
2021/07/26 05:58:10;;;;;;;;;;;;;;;19.24;100.00;95876.53;3574335;40;19938;-61
2021/07/26 06:00:44;;;;;;;;;;;;;;;19.27;100.00;95878.56;3573621;40;19954;-62
2021/07/26 06:03:12;;;;;;;;;;;;;;;19.26;100.00;95866.28;3581003;39;19944;-62
2021/07/26 06:05:40;;;;;;;;;;;;;;;19.36;100.00;95878.56;3571784;40;19941;-61
2021/07/26 06:08:07;;;;;;;;;;;;;;;19.56;100.00;95881.75;3587779;39;19937;-62
2021/07/26 06:10:36;;;;;;;;;;;;;;;19.58;100.00;95884.88;3572831;40;19950;-60
2021/07/26 06:13:05;;;;;;;;;;;;;;;19.64;100.00;95884.41;3568800;40;19944;-60
2021/07/26 06:15:32;;;;;;;;;;;;;;;19.66;100.00;95887.56;3566806;40;19940;-60
2021/07/26 06:18:01;;;;;;;;;;;;;;;19.73;100.00;95891.66;3564502;40;19948;-60
2021/07/26 06:20:28;;;;;;;;;;;;;;;19.91;100.00;95890.56;3582695;40;19944;-60
2021/07/26 06:22:55;;;;;;;;;;;;;;;19.99;100.00;95888.97;3576724;40;19944;-60
2021/07/26 06:25:23;;;;;;;;;;;;;;;20.02;100.00;95892.91;3570654;40;19939;-60
2021/07/26 06:27:52;;;;;;;;;;;;;;;20.05;100.00;95889.59;3570444;40;20217;-61
2021/07/26 06:30:19;;;;;;;;;;;;;;;20.02;97.54;95899.06;3580796;39;19942;-59
2021/07/26 06:32:49;;;;;;;;;;;;;;;20.07;100.00;95900.78;3575845;40;19940;-59
2021/07/26 06:35:16;;;;;;;;;;;;;;;19.99;93.08;95904.28;3565122;40;19966;-60
2021/07/26 06:37:47;;;;;;;;;;;;;;;20.04;94.06;95896.06;3588821;39;19956;-61
2021/07/26 06:40:16;;;;;;;;;;;;;;;20.05;92.59;95903.00;3579669;40;19943;-62
2021/07/26 06:42:44;;;;;;;;;;;;;;;20.20;100.00;95904.38;3568376;40;19943;-62
2021/07/26 06:45:12;;;;;;;;;;;;;;;20.27;100.00;95899.34;3579571;39;20125;-62
2021/07/26 06:47:40;;;;;;;;;;;;;;;20.41;100.00;95899.94;3576370;40;19947;-62
2021/07/26 06:50:08;;;;;;;;;;;;;;;20.41;92.79;95905.31;3580851;39;19947;-60
2021/07/26 06:52:36;;;;;;;;;;;;;;;20.43;99.75;95908.44;3563258;40;20300;-62
2021/07/26 06:55:05;;;;;;;;;;;;;;;20.56;98.67;95911.22;3587247;39;20402;-61
2021/07/26 06:57:34;;;;;;;;;;;;;;;20.74;100.00;95895.88;3580436;39;19944;-62
2021/07/26 07:00:03;;;;;;;;;;;;;;;20.88;100.00;95907.19;3587128;39;19939;-62
2021/07/26 07:02:30;;;;;;;;;;;;;;;20.97;100.00;95909.06;3587893;39;19944;-62
2021/07/26 07:04:58;;;;;;;;;;;;;;;21.00;95.17;95905.72;3564918;39;19948;-63
2021/07/26 07:07:25;;;;;;;;;;;;;;;21.14;100.00;95911.66;3580829;39;20289;-63
2021/07/26 07:09:53;;;;;;;;;;;;;;;21.25;100.00;95916.63;3574399;40;20279;-62
2021/07/26 07:12:21;;;;;;;;;;;;;;;21.40;98.93;95916.06;3589004;39;19944;-60
2021/07/26 07:14:49;;;;;;;;;;;;;;;21.53;100.00;95918.84;3569465;40;20287;-62
2021/07/26 07:17:17;;;;;;;;;;;;;;;21.62;100.00;95923.06;3585001;39;19967;-61
2021/07/26 07:19:46;;;;;;;;;;;;;;;21.76;100.00;95914.75;3593860;39;19948;-62
2021/07/26 07:22:18;;;;;;;;;;;;;;;21.92;100.00;95914.16;3569077;40;19950;-62
2021/07/26 07:24:46;;;;;;;;;;;;;;;22.03;96.32;95914.53;3575280;40;19940;-61
2021/07/26 07:27:14;;;;;;;;;;;;;;;22.05;97.08;95915.78;3576384;40;19951;-62
2021/07/26 07:29:41;;;;;;;;;;;;;;;22.22;100.00;95922.88;3578847;40;19940;-62
2021/07/26 07:32:12;;;;;;;;;;;;;;;22.32;100.00;95921.69;3568309;39;19940;-60
2021/07/26 07:34:39;;;;;;;;;;;;;;;22.38;100.00;95925.72;3581815;39;19940;-61
2021/07/26 07:37:10;;;;;;;;;;;;;;;22.45;99.39;95911.00;3579552;40;19999;-62
2021/07/26 07:39:39;;;;;;;;;;;;;;;22.55;98.79;95916.72;3570887;40;19932;-62
2021/07/26 07:42:07;;;;;;;;;;;;;;;22.61;90.42;95922.66;3585077;40;19940;-62
2021/07/26 07:44:35;;;;;;;;;;;;;;;22.62;79.26;95916.16;3579956;40;19944;-62
2021/07/26 07:47:03;;;;;;;;;;;;;;;22.49;85.36;95917.25;3583431;40;19948;-62
2021/07/26 07:49:31;;;;;;;;;;;;;;;22.53;91.21;95921.63;3582845;40;19944;-63
2021/07/26 07:51:59;;;;;;;;;;;;;;;22.70;91.51;95930.63;3592852;39;19940;-60
2021/07/26 07:54:27;;;;;;;;;;;;;;;22.83;92.50;95928.75;3565811;40;19940;-61
2021/07/26 07:56:54;;;;;;;;;;;;;;;22.81;78.26;95929.09;3562494;40;19936;-61
2021/07/26 07:59:22;;;;;;;;;;;;;;;22.84;83.68;95920.34;3582601;40;19950;-61
2021/07/26 08:01:50;;;;;;;;;;;;;;;22.96;81.83;95927.63;3580588;39;19940;-63
2021/07/26 08:04:18;;;;;;;;;;;;;;;23.08;81.00;95928.78;3579819;39;20421;-61
2021/07/26 08:06:47;;;;;;;;;;;;;;;23.23;85.95;95938.09;3568260;40;20298;-61
2021/07/26 08:09:15;;;;;;;;;;;;;;;23.37;83.86;95937.75;3574023;40;19974;-65
2021/07/26 08:11:42;;;;;;;;;;;;;;;23.49;73.08;95935.03;3581473;39;19933;-64
2021/07/26 08:14:10;;;;;;;;;;;;;;;23.62;82.42;95936.59;3573982;40;19941;-65
2021/07/26 08:16:38;;;;;;;;;;;;;;;23.72;79.08;95934.53;3576410;40;19950;-61
2021/07/26 08:19:06;;;;;;;;;;;;;;;23.86;78.90;95939.56;3573763;40;20296;-62
2021/07/26 08:21:34;;;;;;;;;;;;;;;23.94;77.69;95941.31;3584681;39;19939;-62
2021/07/26 08:24:02;;;;;;;;;;;;;;;24.11;73.27;95948.38;3566932;40;19932;-62
2021/07/26 08:26:30;;;;;;;;;;;;;;;24.20;74.76;95943.59;3584861;39;19950;-62
2021/07/26 08:28:58;;;;;;;;;;;;;;;24.32;71.99;95944.69;3571613;40;19942;-63
2021/07/26 08:31:28;;;;;;;;;;;;;;;24.39;72.08;95942.19;3583396;39;20122;-63
2021/07/26 08:33:55;;;;;;;;;;;;;;;24.52;72.12;95938.31;3582933;39;20713;-64
2021/07/26 08:36:23;;;;;;;;;;;;;;;24.61;70.75;95953.53;3588701;39;20389;-63
2021/07/26 08:38:51;;;;;;;;;;;;;;;24.66;70.09;95953.28;3569815;40;19940;-62
2021/07/26 08:41:20;;;;;;;;;;;;;;;24.79;69.71;95938.63;3581086;40;19946;-64
2021/07/26 08:43:48;;;;;;;;;;;;;;;25.02;66.32;95940.69;3568811;40;19936;-62
2021/07/26 08:46:17;;;;;;;;;;;;;;;25.13;66.04;95949.84;3581281;39;19944;-62
2021/07/26 08:48:47;;;;;;;;;;;;;;;25.22;66.22;95944.25;3567618;40;19946;-62
2021/07/26 08:51:17;;;;;;;;;;;;;;;25.32;64.51;95946.41;3587248;39;19950;-62
2021/07/26 08:53:45;;;;;;;;;;;;;;;25.50;66.70;95950.69;3580172;39;20061;-63
2021/07/26 08:56:22;;;;;;;;;;;;;;;25.73;61.15;95953.47;3582986;39;19939;-61
2021/07/26 08:58:51;;;;;;;;;;;;;;;25.86;61.09;95962.25;3578359;39;19961;-62
2021/07/26 09:01:18;;;;;;;;;;;;;;;25.88;59.38;95959.97;3563130;39;19951;-62
2021/07/26 09:03:49;;;;;;;;;;;;;;;26.02;61.38;95964.88;3577432;39;19942;-62
2021/07/26 09:06:17;;;;;;;;;;;;;;;26.08;60.52;95966.19;3584493;39;19940;-61
2021/07/26 09:08:45;;;;;;;;;;;;;;;26.30;61.36;95962.00;3574428;39;19932;-62
2021/07/26 09:11:13;;;;;;;;;;;;;;;26.42;58.62;95962.97;3576290;39;19940;-61
2021/07/26 09:13:44;;;;;;;;;;;;;;;26.50;58.73;95962.75;3574600;39;19946;-62
2021/07/26 09:16:13;;;;;;;;;;;;;;;26.58;58.02;95962.91;3580472;39;19948;-62
2021/07/26 09:18:42;;;;;;;;;;;;;;;26.55;56.14;95959.75;3589250;39;19940;-61
2021/07/26 09:21:10;;;;;;;;;;;;;;;26.37;56.02;95962.16;3565044;39;20294;-62
2021/07/26 09:23:57;;;;;;;;;;;;;;;26.33;55.91;95960.50;3592374;39;19936;-61
2021/07/26 09:26:26;;;;;;;;;;;;;;;26.34;56.54;95960.16;3575150;39;20120;-62
2021/07/26 09:28:56;;;;;;;;;;;;;;;26.50;57.20;95968.16;3584393;39;19968;-61
2021/07/26 09:31:24;;;;;;;;;;;;;;;26.58;55.21;95957.50;3578027;40;20445;-62
2021/07/26 09:34:20;;;;;;;;;;;;;;;26.70;54.38;95965.44;3586981;40;19932;-62
2021/07/26 09:36:48;;;;;;;;;;;;;;;26.71;57.06;95961.56;3583229;39;19944;-63
2021/07/26 09:39:28;;;;;;;;;;;;;;;26.64;57.09;95961.44;3573801;40;19946;-63
2021/07/26 09:41:58;;;;;;;;;;;;;;;26.62;57.95;95964.53;3590709;39;19946;-62
2021/07/26 09:44:27;;;;;;;;;;;;;;;26.50;56.79;95962.75;3588147;39;19936;-62
2021/07/26 09:47:13;;;;;;;;;;;;;;;26.56;56.13;95960.53;3582218;39;19948;-63
2021/07/26 09:49:41;;;;;;;;;;;;;;;26.49;56.00;95965.81;3574974;39;19945;-60
2021/07/26 09:52:09;;;;;;;;;;;;;;;26.51;55.81;95968.97;3568689;40;19940;-60
2021/07/26 09:54:48;;;;;;;;;;;;;;;26.77;55.84;95967.50;3586002;39;19948;-61
2021/07/26 09:57:20;;;;;;;;;;;;;;;26.86;53.02;95971.53;3587319;39;19936;-61
2021/07/26 09:59:48;;;;;;;;;;;;;;;26.83;54.02;95960.66;3585092;39;19998;-61
2021/07/26 10:02:17;;;;;;;;;;;;;;;26.83;54.32;95969.53;3569199;40;19940;-62
2021/07/26 10:04:45;;;;;;;;;;;;;;;26.91;53.73;95965.03;3573587;40;19946;-61
2021/07/26 10:07:15;;;;;;;;;;;;;;;27.13;51.81;95965.41;3573283;40;19932;-61
2021/07/26 10:09:44;;;;;;;;;;;;;;;27.18;53.57;95962.38;3570935;40;19940;-61
2021/07/26 10:12:14;;;;;;;;;;;;;;;27.26;53.36;95969.44;3576673;40;20121;-65
2021/07/26 10:14:43;;;;;;;;;;;;;;;26.96;50.97;95959.31;3592385;39;19936;-62
2021/07/26 10:17:11;;;;;;;;;;;;;;;26.82;50.21;95956.38;3584134;39;19932;-63
2021/07/26 10:19:39;;;;;;;;;;;;;;;26.65;51.95;95965.72;3581468;39;19940;-63
2021/07/26 10:22:10;;;;;;;;;;;;;;;26.68;51.98;95962.31;3584988;40;19940;-61
2021/07/26 10:24:43;;;;;;;;;;;;;;;26.70;52.86;95966.19;3578139;40;20248;-61
2021/07/26 10:27:14;;;;;;;;;;;;;;;26.68;53.47;95965.78;3581559;39;19946;-60
2021/07/26 10:29:53;;;;;;;;;;;;;;;26.71;53.23;95961.56;3590847;39;19942;-64
2021/07/26 10:32:30;;;;;;;;;;;;;;;26.67;52.57;95961.50;3575504;40;19944;-63
2021/07/26 10:34:58;;;;;;;;;;;;;;;26.59;53.00;95964.44;3563999;40;19948;-65
2021/07/26 10:37:38;;;;;;;;;;;;;;;26.53;52.37;95958.53;3565809;40;20286;-63
2021/07/26 10:40:22;;;;;;;;;;;;;;;26.59;53.17;95965.25;3590152;39;19944;-62
2021/07/26 10:42:50;;;;;;;;;;;;;;;26.55;53.19;95958.97;3583156;39;19944;-62
2021/07/26 10:45:30;;;;;;;;;;;;;;;26.60;51.21;95957.88;3579838;39;20280;-62
2021/07/26 10:48:17;;;;;;;;;;;;;;;26.58;52.04;95958.25;3584199;39;20473;-62
2021/07/26 10:50:45;;;;;;;;;;;;;;;26.75;52.39;95950.81;3586249;39;21406;-63
2021/07/26 10:53:31;;;;;;;;;;;;;;;26.81;49.91;95947.50;3589897;39;19941;-63
2021/07/26 10:55:59;;;;;;;;;;;;;;;26.96;51.06;95942.28;3571191;40;19950;-63
2021/07/26 10:58:39;;;;;;;;;;;;;;;27.04;50.59;95943.19;3581063;40;19940;-61
2021/07/26 11:01:22;;;;;;;;;;;;;;;27.11;50.93;95948.72;3581074;39;19943;-63
2021/07/26 11:03:57;;;;;;;;;;;;;;;27.10;50.17;95945.22;3571595;39;19947;-63
2021/07/26 11:06:34;;;;;;;;;;;;;;;27.05;50.06;95942.84;3572967;40;20010;-63
2021/07/26 11:09:20;;;;;;;;;;;;;;;27.07;50.21;95939.75;3572572;40;19936;-63
2021/07/26 11:11:49;;;;;;;;;;;;;;;27.29;50.11;95941.66;3574849;40;19944;-63
2021/07/26 11:14:17;;;;;;;;;;;;;;;27.45;51.33;95940.75;3573669;40;20311;-65
2021/07/26 11:19:35;;;;;;;;;;;;;;;27.42;49.82;95931.41;3574745;40;19946;-64
2021/07/26 11:22:15;;;;;;;;;;;;;;;27.50;48.63;95935.03;3576318;40;19937;-64
2021/07/26 11:24:47;;;;;;;;;;;;;;;27.42;49.73;95930.59;3586288;39;19963;-63
2021/07/26 11:27:17;;;;;;;;;;;;;;;27.43;49.59;95932.16;3576183;40;19936;-63
2021/07/26 11:29:47;;;;;;;;;;;;;;;27.47;50.11;95936.53;3541963;40;1597992;-63
2021/07/26 11:32:18;;;;;;;;;;;;;;;27.55;50.66;95936.63;3584021;39;19965;-63
2021/07/26 11:34:46;;;;;;;;;;;;;;;27.54;48.39;95933.13;3563246;39;19944;-66
2021/07/26 11:37:14;;;;;;;;;;;;;;;27.46;48.35;95934.19;3583017;39;20026;-62
2021/07/26 11:39:43;;;;;;;;;;;;;;;27.46;48.71;95923.34;3573898;40;19944;-63
2021/07/26 11:42:12;;;;;;;;;;;;;;;27.52;48.67;95924.59;3573900;40;19932;-63
2021/07/26 11:44:39;;;;;;;;;;;;;;;27.49;49.79;95919.91;3586582;40;19944;-64
2021/07/26 11:47:07;;;;;;;;;;;;;;;27.63;49.60;95914.66;3576017;40;19968;-62
2021/07/26 11:49:54;;;;;;;;;;;;;;;27.76;47.93;95920.66;3577031;40;20392;-63
2021/07/26 11:52:22;;;;;;;;;;;;;;;27.75;47.42;95918.31;3588963;39;19942;-64
2021/07/26 11:54:51;;;;;;;;;;;;;;;27.68;48.84;95918.22;3591053;39;19947;-61
2021/07/26 11:57:18;;;;;;;;;;;;;;;27.72;49.88;95914.41;3574850;39;19933;-61
2021/07/26 11:59:49;;;;;;;;;;;;;;;27.86;49.81;95919.22;3583250;39;19944;-63
2021/07/26 12:02:31;;;;;;;;;;;;;;;27.93;48.05;95919.31;3580567;39;19954;-63
2021/07/26 12:05:12;;;;;;;;;;;;;;;27.86;47.46;95911.09;3584845;39;20214;-61
2021/07/26 12:07:41;;;;;;;;;;;;;;;27.86;46.39;95918.44;3593278;39;19932;-63
2021/07/26 12:10:09;;;;;;;;;;;;;;;28.13;47.16;95912.97;3575712;39;19938;-62
2021/07/26 12:12:41;;;;;;;;;;;;;;;28.10;47.51;95909.06;3592336;39;20053;-63
2021/07/26 12:15:22;;;;;;;;;;;;;;;28.18;46.59;95908.00;3593136;39;19943;-61
2021/07/26 12:18:06;;;;;;;;;;;;;;;28.49;45.37;95905.97;3574095;40;19940;-64
2021/07/26 12:20:36;;;;;;;;;;;;;;;28.60;45.73;95889.03;3579428;40;20297;-64
2021/07/26 12:23:12;;;;;;;;;;;;;;;28.51;44.08;95898.22;3566585;40;19942;-62
2021/07/26 12:25:44;;;;;;;;;;;;;;;28.44;44.71;95892.75;3575206;40;19940;-61
2021/07/26 12:28:11;;;;;;;;;;;;;;;28.34;44.87;95899.63;3582590;39;19946;-63
2021/07/26 12:30:41;;;;;;;;;;;;;;;28.30;45.07;95892.59;3589174;40;20167;-62
2021/07/26 12:33:09;;;;;;;;;;;;;;;28.48;44.94;95896.28;3574791;40;19940;-62
2021/07/26 12:35:37;;;;;;;;;;;;;;;28.64;45.24;95889.81;3586024;39;19944;-62
2021/07/26 12:38:11;;;;;;;;;;;;;;;28.65;45.06;95892.16;3579418;40;20355;-62
2021/07/26 12:40:40;;;;;;;;;;;;;;;28.72;44.95;95899.63;3594089;39;19944;-62
2021/07/26 12:43:16;;;;;;;;;;;;;;;28.84;43.18;95893.91;3576516;40;19998;-64
2021/07/26 12:46:00;;;;;;;;;;;;;;;28.98;44.42;95897.88;3577610;40;19938;-64
2021/07/26 12:48:29;;;;;;;;;;;;;;;29.12;45.47;95899.91;3585243;40;19943;-63
2021/07/26 12:50:57;;;;;;;;;;;;;;;29.11;44.47;95896.41;3588157;40;20252;-63
2021/07/26 12:53:26;;;;;;;;;;;;;;;29.22;44.91;95891.06;3575971;40;19962;-63
2021/07/26 12:55:54;;;;;;;;;;;;;;;29.54;44.49;95900.59;3581215;40;19944;-63
2021/07/26 12:58:23;;;;;;;;;;;;;;;29.65;43.53;95889.78;3592102;39;19943;-63